createdAt,value
2022-10-06T00:00:00.000Z,5.46
2022-10-06T00:15:00.000Z,5.15
2022-10-06T00:30:00.000Z,5.73
2022-10-06T00:45:00.000Z,5.15
2022-10-06T01:00:00.000Z,5.48
2022-10-06T01:15:00.000Z,5.47
2022-10-06T01:30:00.000Z,5.4
2022-10-06T01:45:00.000Z,5.46
2022-10-06T02:00:00.000Z,5.24
2022-10-06T02:15:00.000Z,5.6
2022-10-06T02:30:00.000Z,5.52
2022-10-06T02:45:00.000Z,5.56
2022-10-06T03:00:00.000Z,4.85
2022-10-06T03:15:00.000Z,5.54
2022-10-06T03:30:00.000Z,5.26
2022-10-06T03:45:00.000Z,4.91
2022-10-06T04:00:00.000Z,6.25
2022-10-06T04:15:00.000Z,6.7
2022-10-06T04:45:00.000Z,6
2022-10-06T04:45:00.000Z,5.75
2022-10-06T05:00:00.000Z,6.4
2022-10-06T05:15:00.000Z,7.41
2022-10-06T05:30:00.000Z,6.85
2022-10-06T05:45:00.000Z,5.2
2022-10-06T06:00:00.000Z,4.88
2022-10-06T06:15:00.000Z,6.78
2022-10-06T06:30:00.000Z,7.12
2022-10-06T06:45:00.000Z,7.38
2022-10-06T07:00:00.000Z,6.81
2022-10-06T07:15:00.000Z,6.89
2022-10-06T07:30:00.000Z,6.64
2022-10-06T07:45:00.000Z,6.29
2022-10-06T08:00:00.000Z,5.51
2022-10-06T08:15:00.000Z,6.01
2022-10-06T08:30:00.000Z,6.66
2022-10-06T08:45:00.000Z,5.26
2022-10-06T09:00:00.000Z,5.01
2022-10-06T09:15:00.000Z,6.34
2022-10-06T09:30:00.000Z,5.8
2022-10-06T09:45:00.000Z,6.14
2022-10-06T10:00:00.000Z,6.75
2022-10-06T10:15:00.000Z,7.09
2022-10-06T10:30:00.000Z,7.25
2022-10-06T10:45:00.000Z,7.34
2022-10-06T11:00:00.000Z,7.15
2022-10-06T11:15:00.000Z,7.2
2022-10-06T11:30:00.000Z,7.32
2022-10-06T11:45:00.000Z,7.34
2022-10-06T12:00:00.000Z,7.61
2022-10-06T12:15:00.000Z,7.35
2022-10-06T12:30:00.000Z,7.36
2022-10-06T12:45:00.000Z,8.49
2022-10-06T13:00:00.000Z,7.36
2022-10-06T13:15:00.000Z,9.69
2022-10-06T13:30:00.000Z,8.07
2022-10-06T13:45:00.000Z,8.67
2022-10-06T14:00:00.000Z,10.85
2022-10-06T14:15:00.000Z,10.06
2022-10-06T14:30:00.000Z,11.32
2022-10-06T14:45:00.000Z,10.18
2022-10-06T15:00:00.000Z,9.78
2022-10-06T15:15:00.000Z,10.15
2022-10-06T15:30:00.000Z,10.92
2022-10-06T15:45:00.000Z,12.72
2022-10-06T16:00:00.000Z,11
2022-10-06T16:15:00.000Z,10.93
2022-10-06T16:30:00.000Z,12.4
2022-10-06T16:45:00.000Z,11.56
2022-10-06T17:00:00.000Z,11.86
2022-10-06T17:15:00.000Z,14.07
2022-10-06T17:30:00.000Z,14.78
2022-10-06T17:45:00.000Z,17.93
2022-10-06T18:00:00.000Z,20.91
2022-10-06T18:15:00.000Z,21.08
2022-10-06T18:30:00.000Z,15.39
2022-10-06T18:45:00.000Z,17.74
2022-10-06T19:00:00.000Z,17.54
2022-10-06T19:15:00.000Z,17.11
2022-10-06T19:30:00.000Z,18.21
2022-10-06T19:45:00.000Z,19.85
2022-10-06T20:00:00.000Z,21.85
2022-10-06T20:15:00.000Z,21.05
2022-10-06T20:30:00.000Z,22.07
2022-10-06T20:45:00.000Z,21.92
2022-10-06T21:00:00.000Z,22.28
2022-10-06T21:15:00.000Z,21.99
2022-10-06T21:30:00.000Z,24.75
2022-10-06T21:45:00.000Z,22.85
2022-10-06T22:00:00.000Z,23.35
2022-10-06T22:15:00.000Z,22.61
2022-10-06T22:30:00.000Z,22.38
2022-10-06T22:45:00.000Z,22.52
2022-10-06T23:00:00.000Z,22.34
2022-10-06T23:15:00.000Z,22.2
2022-10-06T23:30:00.000Z,22.06
2022-10-06T23:45:00.000Z,23.24
